Time;durP1;ratioP1;P1;durP2;ratioP2;P2;SDS_P1;SDS_P2;PMS_P1;PMS_P2;Temp;Humidity;BMP_temperature;BMP_pressure;BME280_temperature;BME280_humidity;BME280_pressure;Samples;Min_cycle;Max_cycle;Signal;HPM_P1;HPM_P2
2023/12/19 00:01:52;;;;;;;12.13;11.52;;;;;;;;;;5073676;28;20024;-61
2023/12/19 00:04:18;;;;;;;11.45;10.95;;;;;;;;;;5074421;28;20373;-61
2023/12/19 00:06:43;;;;;;;11.73;11.23;;;;;;;;;;5074070;28;20403;-61
2023/12/19 00:09:08;;;;;;;11.60;11.10;;;;;;;;;;5073904;28;20024;-61
2023/12/19 00:11:34;;;;;;;11.75;11.25;;;;;;;;;;5073948;28;20096;-61
2023/12/19 00:14:00;;;;;;;12.02;11.45;;;;;;;;;;5074326;28;20017;-61
2023/12/19 00:16:25;;;;;;;12.07;11.50;;;;;;;;;;5073489;28;20047;-61
2023/12/19 00:18:50;;;;;;;12.25;11.65;;;;;;;;;;5073689;28;20107;-62
2023/12/19 00:21:16;;;;;;;11.80;11.30;;;;;;;;;;5073818;28;20017;-62
2023/12/19 00:23:41;;;;;;;12.50;11.90;;;;;;;;;;5074007;28;20017;-61
2023/12/19 00:26:07;;;;;;;12.30;11.70;;;;;;;;;;5071613;28;20085;-61
2023/12/19 00:28:32;;;;;;;12.30;11.70;;;;;;;;;;5072990;28;20070;-60
2023/12/19 00:30:57;;;;;;;11.70;11.20;;;;;;;;;;5072276;28;20046;-61
2023/12/19 00:33:23;;;;;;;12.00;11.40;;;;;;;;;;5071681;28;20029;-62
2023/12/19 00:35:48;;;;;;;12.07;11.48;;;;;;;;;;5073416;28;20016;-61
2023/12/19 00:38:14;;;;;;;11.70;11.20;;;;;;;;;;5073612;28;20013;-61
2023/12/19 00:40:39;;;;;;;11.70;11.20;;;;;;;;;;5073358;28;20731;-61
2023/12/19 00:43:04;;;;;;;11.73;11.23;;;;;;;;;;5072738;28;20099;-61
2023/12/19 00:45:30;;;;;;;11.82;11.32;;;;;;;;;;5071256;28;20024;-61
2023/12/19 00:47:55;;;;;;;12.20;11.60;;;;;;;;;;5073466;28;20024;-62
2023/12/19 00:50:20;;;;;;;12.40;11.80;;;;;;;;;;5075254;28;20384;-61
2023/12/19 00:52:46;;;;;;;11.85;11.35;;;;;;;;;;5076243;28;20240;-61
2023/12/19 00:55:11;;;;;;;12.25;11.65;;;;;;;;;;5073168;28;20222;-62
2023/12/19 00:57:36;;;;;;;12.45;11.85;;;;;;;;;;5072181;28;20065;-62
2023/12/19 01:00:02;;;;;;;11.45;10.95;;;;;;;;;;5073263;28;20028;-61
2023/12/19 01:02:28;;;;;;;12.40;11.80;;;;;;;;;;5071041;28;20028;-61
2023/12/19 01:04:56;;;;;;;12.50;11.90;;;;;;;;;;5073218;28;20016;-61
2023/12/19 01:07:22;;;;;;;12.30;11.70;;;;;;;;;;5070168;28;20103;-61
2023/12/19 01:09:47;;;;;;;11.55;11.05;;;;;;;;;;5072708;28;20564;-62
2023/12/19 01:12:14;;;;;;;12.20;11.60;;;;;;;;;;5072731;28;20017;-62
2023/12/19 01:14:39;;;;;;;12.10;11.50;;;;;;;;;;5073824;28;20013;-61
2023/12/19 01:17:05;;;;;;;12.30;11.70;;;;;;;;;;5076418;28;20174;-62
2023/12/19 01:19:30;;;;;;;12.30;11.70;;;;;;;;;;5067696;28;20028;-61
2023/12/19 01:21:56;;;;;;;12.20;11.60;;;;;;;;;;5071356;28;20024;-60
2023/12/19 01:24:22;;;;;;;11.77;11.27;;;;;;;;;;5072640;28;20035;-62
2023/12/19 01:26:49;;;;;;;11.95;11.40;;;;;;;;;;5072588;28;20422;-62
2023/12/19 01:29:15;;;;;;;11.50;11.00;;;;;;;;;;5072546;28;20028;-62
2023/12/19 01:31:40;;;;;;;12.18;11.57;;;;;;;;;;5072311;28;20070;-61
2023/12/19 01:34:05;;;;;;;11.70;11.20;;;;;;;;;;5070313;28;20050;-61
2023/12/19 01:36:31;;;;;;;11.50;11.00;;;;;;;;;;5072125;28;20021;-61
2023/12/19 01:38:56;;;;;;;11.82;11.30;;;;;;;;;;5071990;28;20098;-61
2023/12/19 01:41:24;;;;;;;12.13;11.52;;;;;;;;;;5072299;28;20662;-62
2023/12/19 01:43:50;;;;;;;12.23;11.63;;;;;;;;;;5071977;28;20020;-60
2023/12/19 01:46:18;;;;;;;12.10;11.50;;;;;;;;;;5071976;28;20471;-62
2023/12/19 01:48:44;;;;;;;12.40;11.80;;;;;;;;;;5071875;28;20020;-61
2023/12/19 01:51:11;;;;;;;12.90;12.30;;;;;;;;;;5073775;28;20024;-61
2023/12/19 01:53:37;;;;;;;11.60;11.10;;;;;;;;;;5072265;28;20099;-60
2023/12/19 01:56:02;;;;;;;12.20;11.60;;;;;;;;;;5071894;28;20101;-62
2023/12/19 01:58:29;;;;;;;11.77;11.27;;;;;;;;;;5071400;28;20028;-61
2023/12/19 02:00:55;;;;;;;11.45;10.95;;;;;;;;;;5072072;28;20031;-61
2023/12/19 02:03:20;;;;;;;12.10;11.50;;;;;;;;;;5077976;28;20490;-60
2023/12/19 02:05:46;;;;;;;12.05;11.48;;;;;;;;;;5071791;28;20020;-61
2023/12/19 02:08:12;;;;;;;11.57;11.07;;;;;;;;;;5071491;28;20035;-61
2023/12/19 02:10:37;;;;;;;11.63;11.13;;;;;;;;;;5071738;28;20033;-61
2023/12/19 02:13:03;;;;;;;11.85;11.30;;;;;;;;;;5067976;28;20044;-62
2023/12/19 02:15:28;;;;;;;12.05;11.45;;;;;;;;;;5071220;28;20083;-61
2023/12/19 02:17:53;;;;;;;12.98;12.32;;;;;;;;;;5071288;28;20482;-62
2023/12/19 02:20:19;;;;;;;11.90;11.30;;;;;;;;;;5070722;28;20458;-63
2023/12/19 02:22:47;;;;;;;11.43;10.93;;;;;;;;;;5071572;28;20468;-62
2023/12/19 02:25:14;;;;;;;12.10;11.50;;;;;;;;;;5071447;28;20020;-61
2023/12/19 02:27:39;;;;;;;11.90;11.38;;;;;;;;;;5071821;28;20016;-61
2023/12/19 02:30:05;;;;;;;11.55;11.05;;;;;;;;;;5069743;28;20403;-60
2023/12/19 02:32:34;;;;;;;12.15;11.55;;;;;;;;;;5071131;28;20025;-60
2023/12/19 02:35:00;;;;;;;11.90;11.30;;;;;;;;;;5069840;28;20044;-61
2023/12/19 02:37:25;;;;;;;11.73;11.23;;;;;;;;;;5071202;28;20055;-61
2023/12/19 02:39:50;;;;;;;11.98;11.38;;;;;;;;;;5071321;28;20024;-62
2023/12/19 02:42:15;;;;;;;11.60;11.10;;;;;;;;;;5073830;28;20016;-62
2023/12/19 02:44:41;;;;;;;11.70;11.20;;;;;;;;;;5066365;28;20021;-62
2023/12/19 02:47:06;;;;;;;12.00;11.40;;;;;;;;;;5071497;28;20404;-61
2023/12/19 02:49:32;;;;;;;11.60;11.10;;;;;;;;;;5070549;28;20393;-61
2023/12/19 02:51:58;;;;;;;12.20;11.60;;;;;;;;;;5071409;28;20026;-60
2023/12/19 02:54:23;;;;;;;11.60;11.10;;;;;;;;;;5076877;28;20027;-62
2023/12/19 02:56:48;;;;;;;11.48;10.98;;;;;;;;;;5070275;28;20020;-61
2023/12/19 02:59:14;;;;;;;11.32;10.82;;;;;;;;;;5069972;28;20027;-61
2023/12/19 03:01:39;;;;;;;12.00;11.40;;;;;;;;;;5071146;28;20107;-62
2023/12/19 03:04:04;;;;;;;12.30;11.70;;;;;;;;;;5073050;28;20021;-60
2023/12/19 03:06:30;;;;;;;11.30;10.80;;;;;;;;;;5070705;28;20021;-60
2023/12/19 03:08:57;;;;;;;11.90;11.30;;;;;;;;;;5070712;28;20039;-62
2023/12/19 03:11:22;;;;;;;12.35;11.75;;;;;;;;;;5071088;28;20020;-60
2023/12/19 03:13:48;;;;;;;12.23;11.63;;;;;;;;;;5069591;28;20507;-61
2023/12/19 03:16:13;;;;;;;11.68;11.18;;;;;;;;;;5066630;28;20052;-61
2023/12/19 03:18:38;;;;;;;11.98;11.38;;;;;;;;;;5076248;28;20100;-61
2023/12/19 03:21:04;;;;;;;12.00;11.40;;;;;;;;;;5064177;28;20056;-61
2023/12/19 03:23:29;;;;;;;11.80;11.30;;;;;;;;;;5069781;28;20024;-61
2023/12/19 03:25:55;;;;;;;12.00;11.40;;;;;;;;;;5067250;28;20047;-61
2023/12/19 03:28:20;;;;;;;11.82;11.23;;;;;;;;;;5070700;28;20024;-62
2023/12/19 03:30:45;;;;;;;11.75;11.25;;;;;;;;;;5070482;28;20066;-62
2023/12/19 03:33:10;;;;;;;12.45;11.85;;;;;;;;;;5070551;28;20059;-61
2023/12/19 03:35:36;;;;;;;11.60;11.10;;;;;;;;;;5070632;28;20048;-61
2023/12/19 03:38:01;;;;;;;12.00;11.40;;;;;;;;;;5070668;28;20017;-61
2023/12/19 03:40:27;;;;;;;12.30;11.70;;;;;;;;;;5069005;28;20024;-61
2023/12/19 03:42:52;;;;;;;12.18;11.57;;;;;;;;;;5071091;28;20020;-61
2023/12/19 03:45:17;;;;;;;12.02;11.43;;;;;;;;;;5070347;28;20112;-61
2023/12/19 03:47:43;;;;;;;11.85;11.32;;;;;;;;;;5071002;28;20060;-62
2023/12/19 03:50:08;;;;;;;12.52;11.93;;;;;;;;;;5070577;28;20020;-61
2023/12/19 03:52:34;;;;;;;12.00;11.40;;;;;;;;;;5070732;28;20464;-61
2023/12/19 03:54:59;;;;;;;11.40;10.90;;;;;;;;;;5068915;28;20096;-62
2023/12/19 03:57:25;;;;;;;11.90;11.30;;;;;;;;;;5070647;28;20025;-61
2023/12/19 03:59:50;;;;;;;12.43;11.82;;;;;;;;;;5071883;28;20033;-62
2023/12/19 04:02:16;;;;;;;12.07;11.48;;;;;;;;;;5070796;28;20012;-62
2023/12/19 04:04:41;;;;;;;12.02;11.43;;;;;;;;;;5070653;28;20040;-61
2023/12/19 04:07:07;;;;;;;12.57;11.98;;;;;;;;;;5067219;28;20024;-62
2023/12/19 04:09:33;;;;;;;12.05;11.45;;;;;;;;;;5069378;28;20027;-60
2023/12/19 04:12:02;;;;;;;12.20;11.60;;;;;;;;;;5074408;28;20021;-62
2023/12/19 04:14:27;;;;;;;13.02;12.35;;;;;;;;;;5074462;28;20032;-61
2023/12/19 04:16:52;;;;;;;11.50;11.00;;;;;;;;;;5073594;28;20049;-61
2023/12/19 04:19:19;;;;;;;11.98;11.38;;;;;;;;;;5073560;28;20024;-62
2023/12/19 04:21:44;;;;;;;11.68;11.18;;;;;;;;;;5073602;28;20024;-61
2023/12/19 04:24:11;;;;;;;12.18;11.57;;;;;;;;;;5065581;28;20020;-61
2023/12/19 04:26:36;;;;;;;12.10;11.50;;;;;;;;;;5071158;28;20027;-62
2023/12/19 04:29:01;;;;;;;12.05;11.45;;;;;;;;;;5075986;28;20020;-61
2023/12/19 04:31:28;;;;;;;11.23;10.73;;;;;;;;;;5070416;28;20020;-62
2023/12/19 04:33:53;;;;;;;12.40;11.80;;;;;;;;;;5077070;28;20017;-61
2023/12/19 04:36:19;;;;;;;11.93;11.32;;;;;;;;;;5070138;28;20550;-62
2023/12/19 04:38:45;;;;;;;12.20;11.60;;;;;;;;;;5072466;28;20032;-62
2023/12/19 04:41:10;;;;;;;12.60;12.00;;;;;;;;;;5073095;28;20359;-62
2023/12/19 04:43:35;;;;;;;11.98;11.38;;;;;;;;;;5073686;28;20023;-62
2023/12/19 04:46:02;;;;;;;12.18;11.57;;;;;;;;;;5074353;28;20036;-61
2023/12/19 04:48:31;;;;;;;12.07;11.48;;;;;;;;;;5079130;28;20032;-60
2023/12/19 04:50:57;;;;;;;11.75;11.15;;;;;;;;;;5078614;28;20198;-62
2023/12/19 04:53:22;;;;;;;11.60;11.10;;;;;;;;;;5072759;28;20102;-61
2023/12/19 04:55:47;;;;;;;11.98;11.38;;;;;;;;;;5068005;28;20472;-62
2023/12/19 04:58:13;;;;;;;11.90;11.30;;;;;;;;;;5072987;28;20082;-62
2023/12/19 05:00:38;;;;;;;12.07;11.48;;;;;;;;;;5072844;28;20111;-61
2023/12/19 05:03:03;;;;;;;11.90;11.30;;;;;;;;;;5072443;28;20503;-61
2023/12/19 05:05:29;;;;;;;11.85;11.25;;;;;;;;;;5070942;28;20043;-63
2023/12/19 05:07:54;;;;;;;11.38;10.88;;;;;;;;;;5072933;28;20074;-61
2023/12/19 05:10:20;;;;;;;12.57;11.98;;;;;;;;;;5073834;28;20070;-61
2023/12/19 05:12:45;;;;;;;12.02;11.43;;;;;;;;;;5073052;28;20433;-61
2023/12/19 05:15:10;;;;;;;11.15;10.65;;;;;;;;;;5072209;28;20098;-62
2023/12/19 05:17:36;;;;;;;11.75;11.20;;;;;;;;;;5072220;28;20094;-62
2023/12/19 05:20:01;;;;;;;11.98;11.38;;;;;;;;;;5062363;28;20099;-61
2023/12/19 05:22:26;;;;;;;11.70;11.10;;;;;;;;;;5072728;28;20028;-62
2023/12/19 05:24:52;;;;;;;11.43;10.93;;;;;;;;;;5071395;28;20085;-62
2023/12/19 05:27:17;;;;;;;12.07;11.48;;;;;;;;;;5070308;28;20033;-62
2023/12/19 05:29:43;;;;;;;11.40;10.90;;;;;;;;;;5072421;28;20509;-61
2023/12/19 05:32:08;;;;;;;12.35;11.75;;;;;;;;;;5071511;28;20043;-62
2023/12/19 05:34:34;;;;;;;11.93;11.32;;;;;;;;;;5072888;28;20116;-62
2023/12/19 05:37:00;;;;;;;12.02;11.43;;;;;;;;;;5072176;28;20017;-62
2023/12/19 05:39:25;;;;;;;11.60;11.10;;;;;;;;;;5071926;28;20472;-62
2023/12/19 05:41:51;;;;;;;12.20;11.60;;;;;;;;;;5072063;28;20031;-60
2023/12/19 05:44:17;;;;;;;11.80;11.20;;;;;;;;;;5072223;28;20028;-62
2023/12/19 05:46:42;;;;;;;11.27;10.77;;;;;;;;;;5072177;28;20033;-62
2023/12/19 05:49:08;;;;;;;12.10;11.50;;;;;;;;;;5071950;28;20020;-62
2023/12/19 05:51:37;;;;;;;12.20;11.60;;;;;;;;;;5076932;28;20024;-63
2023/12/19 05:54:02;;;;;;;12.20;11.60;;;;;;;;;;5071322;28;20066;-62
2023/12/19 05:56:28;;;;;;;12.45;11.85;;;;;;;;;;5071326;28;20025;-62
2023/12/19 05:58:53;;;;;;;11.98;11.38;;;;;;;;;;5071613;28;20471;-62
2023/12/19 06:01:18;;;;;;;11.70;11.10;;;;;;;;;;5071903;28;20020;-61
2023/12/19 06:03:44;;;;;;;12.05;11.45;;;;;;;;;;5071744;28;20035;-62
2023/12/19 06:06:12;;;;;;;13.73;12.93;;;;;;;;;;5070376;28;20029;-61
2023/12/19 06:08:39;;;;;;;12.90;12.20;;;;;;;;;;5071617;28;20040;-61
2023/12/19 06:11:06;;;;;;;12.40;11.80;;;;;;;;;;5071511;28;20020;-62
2023/12/19 06:13:31;;;;;;;12.10;11.50;;;;;;;;;;5071428;28;20017;-62
2023/12/19 06:15:57;;;;;;;11.23;10.73;;;;;;;;;;5071496;28;20052;-61
2023/12/19 06:18:22;;;;;;;11.43;10.93;;;;;;;;;;5071600;28;20047;-61
2023/12/19 06:20:47;;;;;;;11.10;10.60;;;;;;;;;;5071851;28;20024;-61
2023/12/19 06:23:13;;;;;;;11.27;10.77;;;;;;;;;;5071394;28;20028;-62
2023/12/19 06:25:38;;;;;;;12.90;12.20;;;;;;;;;;5071175;28;20103;-60
2023/12/19 06:28:04;;;;;;;12.27;11.68;;;;;;;;;;5071406;28;20074;-60
2023/12/19 06:30:30;;;;;;;11.82;11.23;;;;;;;;;;5069949;28;20039;-61
2023/12/19 06:32:55;;;;;;;11.27;10.77;;;;;;;;;;5071507;28;20025;-62
2023/12/19 06:35:20;;;;;;;11.52;11.02;;;;;;;;;;5066608;28;20104;-61
2023/12/19 06:37:46;;;;;;;11.70;11.20;;;;;;;;;;5063317;28;20020;-62
2023/12/19 06:40:11;;;;;;;11.50;11.00;;;;;;;;;;5066778;28;20369;-61
2023/12/19 06:42:37;;;;;;;12.15;11.55;;;;;;;;;;5071746;28;20028;-60
2023/12/19 06:45:02;;;;;;;12.25;11.65;;;;;;;;;;5071764;28;20070;-62
2023/12/19 06:47:28;;;;;;;11.98;11.38;;;;;;;;;;5060872;28;20028;-62
2023/12/19 06:49:53;;;;;;;11.63;11.13;;;;;;;;;;5071286;28;20059;-62
2023/12/19 06:52:19;;;;;;;12.70;12.10;;;;;;;;;;5071624;28;20020;-63
2023/12/19 06:54:46;;;;;;;12.25;11.65;;;;;;;;;;5070478;28;20032;-61
2023/12/19 06:57:11;;;;;;;11.48;10.98;;;;;;;;;;5069265;28;20100;-62
2023/12/19 06:59:36;;;;;;;12.40;11.80;;;;;;;;;;5070680;28;20154;-62
2023/12/19 07:02:03;;;;;;;12.30;11.70;;;;;;;;;;5070957;28;20020;-61
2023/12/19 07:04:29;;;;;;;12.20;11.60;;;;;;;;;;5070638;28;20099;-61
2023/12/19 07:06:54;;;;;;;11.82;11.32;;;;;;;;;;5071038;28;20025;-61
2023/12/19 07:09:19;;;;;;;12.13;11.57;;;;;;;;;;5070456;28;20731;-62
2023/12/19 07:11:45;;;;;;;11.82;11.32;;;;;;;;;;5070720;28;20021;-62
2023/12/19 07:14:10;;;;;;;12.50;11.90;;;;;;;;;;5070683;28;20089;-60
2023/12/19 07:16:35;;;;;;;12.40;11.80;;;;;;;;;;5066218;28;20037;-62
2023/12/19 07:19:01;;;;;;;12.88;12.27;;;;;;;;;;5069005;28;20036;-61
2023/12/19 07:21:27;;;;;;;13.02;12.43;;;;;;;;;;5070432;28;20040;-61
2023/12/19 07:23:53;;;;;;;13.35;12.75;;;;;;;;;;5070402;28;20520;-62
2023/12/19 07:26:29;;;;;;;13.30;12.70;;;;;;;;;;5070733;28;20024;-61
2023/12/19 07:28:54;;;;;;;13.20;12.60;;;;;;;;;;5062399;28;20028;-62
2023/12/19 07:31:20;;;;;;;13.40;12.80;;;;;;;;;;5070633;28;20031;-62
2023/12/19 07:33:45;;;;;;;12.73;12.13;;;;;;;;;;5070325;28;20012;-61
2023/12/19 07:36:12;;;;;;;12.95;12.35;;;;;;;;;;5070885;28;20491;-61
2023/12/19 07:38:37;;;;;;;13.02;12.43;;;;;;;;;;5069396;28;20032;-61
2023/12/19 07:41:02;;;;;;;13.18;12.57;;;;;;;;;;5069346;28;20024;-61
2023/12/19 07:43:29;;;;;;;12.98;12.38;;;;;;;;;;5072809;28;20024;-62
2023/12/19 07:45:54;;;;;;;13.20;12.60;;;;;;;;;;5074031;28;20111;-62
2023/12/19 07:48:19;;;;;;;13.32;12.73;;;;;;;;;;5074404;28;20098;-64
2023/12/19 07:50:45;;;;;;;13.43;12.82;;;;;;;;;;5079483;28;20012;-61
2023/12/19 07:53:10;;;;;;;13.35;12.75;;;;;;;;;;5074072;28;20023;-61
2023/12/19 07:55:35;;;;;;;13.32;12.73;;;;;;;;;;5073913;28;20056;-62
2023/12/19 07:58:01;;;;;;;13.80;13.20;;;;;;;;;;5073599;28;20021;-62
2023/12/19 08:00:26;;;;;;;13.60;13.00;;;;;;;;;;5073735;28;20078;-61
2023/12/19 08:02:53;;;;;;;13.82;13.23;;;;;;;;;;5073843;28;20031;-62
2023/12/19 08:05:18;;;;;;;13.88;13.27;;;;;;;;;;5073907;28;20024;-61
2023/12/19 08:07:44;;;;;;;13.88;13.27;;;;;;;;;;5073746;28;20116;-61
2023/12/19 08:10:09;;;;;;;13.70;13.10;;;;;;;;;;5073553;28;20052;-61
2023/12/19 08:12:35;;;;;;;13.75;13.15;;;;;;;;;;5073781;28;20365;-61
2023/12/19 08:15:01;;;;;;;13.70;13.10;;;;;;;;;;5073883;28;20432;-62
2023/12/19 08:17:26;;;;;;;13.95;13.35;;;;;;;;;;5070080;28;20402;-61
2023/12/19 08:19:51;;;;;;;13.75;13.15;;;;;;;;;;5074134;28;20441;-60
2023/12/19 08:22:17;;;;;;;13.95;13.35;;;;;;;;;;5073890;28;20099;-61
2023/12/19 08:24:42;;;;;;;14.10;13.50;;;;;;;;;;5073465;28;20028;-61
2023/12/19 08:27:07;;;;;;;13.93;13.32;;;;;;;;;;5073352;28;20020;-61
2023/12/19 08:29:33;;;;;;;14.02;13.43;;;;;;;;;;5073374;28;20488;-62
2023/12/19 08:31:58;;;;;;;13.88;13.27;;;;;;;;;;5073188;28;20048;-63
2023/12/19 08:34:23;;;;;;;13.98;13.38;;;;;;;;;;5072579;28;20130;-62
2023/12/19 08:36:49;;;;;;;13.70;13.10;;;;;;;;;;5073294;28;20031;-62
2023/12/19 08:39:14;;;;;;;14.50;13.80;;;;;;;;;;5073969;28;20029;-62
2023/12/19 08:41:43;;;;;;;13.80;13.20;;;;;;;;;;5075304;28;20024;-62
2023/12/19 08:44:08;;;;;;;14.18;13.57;;;;;;;;;;5071814;28;20030;-63
2023/12/19 08:46:34;;;;;;;14.05;13.45;;;;;;;;;;5076585;28;20027;-61
2023/12/19 08:49:00;;;;;;;13.85;13.25;;;;;;;;;;5072820;28;20032;-62
2023/12/19 08:51:26;;;;;;;13.90;13.30;;;;;;;;;;5079079;28;20032;-62
2023/12/19 08:53:51;;;;;;;13.73;13.13;;;;;;;;;;5071880;28;20013;-62
2023/12/19 08:56:17;;;;;;;13.70;13.10;;;;;;;;;;5072704;28;20524;-61
2023/12/19 08:58:44;;;;;;;14.00;13.40;;;;;;;;;;5073098;28;20538;-61
2023/12/19 09:01:09;;;;;;;13.68;13.07;;;;;;;;;;5066062;28;20020;-62
2023/12/19 09:03:35;;;;;;;14.00;13.40;;;;;;;;;;5073060;28;20361;-62
2023/12/19 09:06:01;;;;;;;13.95;13.35;;;;;;;;;;5070339;28;20116;-62
2023/12/19 09:08:26;;;;;;;14.00;13.40;;;;;;;;;;5073434;28;20027;-61
2023/12/19 09:10:51;;;;;;;14.35;13.68;;;;;;;;;;5072833;28;20491;-61
2023/12/19 09:13:17;;;;;;;14.55;13.85;;;;;;;;;;5072420;28;20024;-62
2023/12/19 09:15:42;;;;;;;15.15;14.45;;;;;;;;;;5072168;28;20048;-62
2023/12/19 09:18:07;;;;;;;13.48;12.88;;;;;;;;;;5072640;28;20016;-62
2023/12/19 09:20:33;;;;;;;14.18;13.57;;;;;;;;;;5066456;28;20021;-61
2023/12/19 09:22:58;;;;;;;13.77;13.18;;;;;;;;;;5072480;28;20074;-60
2023/12/19 09:25:23;;;;;;;13.63;13.02;;;;;;;;;;5072179;28;20028;-61
2023/12/19 09:27:49;;;;;;;13.48;12.88;;;;;;;;;;5071860;28;20020;-61
2023/12/19 09:30:17;;;;;;;13.88;13.27;;;;;;;;;;5072265;28;20032;-61
2023/12/19 09:32:42;;;;;;;14.90;14.20;;;;;;;;;;5072015;28;20038;-61
2023/12/19 09:35:08;;;;;;;14.32;13.63;;;;;;;;;;5072106;28;20381;-61
2023/12/19 09:37:33;;;;;;;14.07;13.48;;;;;;;;;;5070577;28;20023;-60
2023/12/19 09:40:01;;;;;;;13.88;13.27;;;;;;;;;;5072429;28;20020;-60
2023/12/19 09:42:27;;;;;;;13.45;12.85;;;;;;;;;;5071927;28;20024;-63
2023/12/19 09:44:52;;;;;;;13.60;13.00;;;;;;;;;;5072345;28;20027;-61
2023/12/19 09:47:24;;;;;;;13.77;13.18;;;;;;;;;;5071274;28;20342;-61
2023/12/19 09:49:53;;;;;;;14.30;13.60;;;;;;;;;;5070901;28;20017;-60
2023/12/19 09:52:22;;;;;;;14.90;14.20;;;;;;;;;;5075919;28;20032;-61
2023/12/19 09:54:51;;;;;;;13.90;13.23;;;;;;;;;;5071587;28;20111;-62
2023/12/19 09:57:20;;;;;;;14.85;14.15;;;;;;;;;;5071584;28;20096;-61
2023/12/19 09:59:46;;;;;;;14.27;13.57;;;;;;;;;;5071289;28;20028;-61
2023/12/19 10:02:12;;;;;;;14.00;13.30;;;;;;;;;;5067363;28;20031;-62
2023/12/19 10:04:38;;;;;;;14.63;13.93;;;;;;;;;;5071362;28;20055;-61
2023/12/19 10:07:04;;;;;;;14.63;13.93;;;;;;;;;;5071007;28;20020;-61
2023/12/19 10:09:30;;;;;;;13.85;13.18;;;;;;;;;;5071601;28;20029;-62
2023/12/19 10:12:11;;;;;;;14.13;13.43;;;;;;;;;;5070304;28;20027;-61
2023/12/19 10:14:36;;;;;;;13.90;13.20;;;;;;;;;;5071548;28;20144;-63
2023/12/19 10:17:06;;;;;;;13.85;13.20;;;;;;;;;;5068027;28;20550;-62
2023/12/19 10:19:34;;;;;;;13.98;13.27;;;;;;;;;;5070326;28;20017;-61
2023/12/19 10:22:06;;;;;;;13.77;13.13;;;;;;;;;;5072389;28;20100;-62
2023/12/19 10:24:31;;;;;;;14.15;13.45;;;;;;;;;;5064697;28;20023;-62
2023/12/19 10:27:03;;;;;;;13.52;12.93;;;;;;;;;;5071944;28;20095;-60
2023/12/19 10:29:36;;;;;;;13.60;13.00;;;;;;;;;;5070661;28;20078;-62
2023/12/19 10:32:14;;;;;;;13.90;13.20;;;;;;;;;;5071815;28;20069;-61
2023/12/19 10:34:41;;;;;;;14.60;13.90;;;;;;;;;;5071044;28;20023;-61
2023/12/19 10:37:18;;;;;;;14.10;13.40;;;;;;;;;;5071243;28;20066;-61
2023/12/19 10:39:44;;;;;;;14.60;13.90;;;;;;;;;;5064818;28;20040;-61
2023/12/19 10:42:12;;;;;;;13.98;13.27;;;;;;;;;;5070800;28;20430;-61
2023/12/19 10:44:40;;;;;;;14.27;13.57;;;;;;;;;;5066365;28;20030;-63
2023/12/19 10:47:07;;;;;;;14.63;13.93;;;;;;;;;;5070535;28;20472;-61
2023/12/19 10:49:32;;;;;;;14.57;13.88;;;;;;;;;;5070279;28;20036;-62
2023/12/19 10:52:04;;;;;;;13.40;12.80;;;;;;;;;;5072682;28;20032;-62
2023/12/19 10:54:30;;;;;;;13.75;13.10;;;;;;;;;;5070660;28;20155;-62
2023/12/19 10:57:06;;;;;;;13.93;13.23;;;;;;;;;;5070859;28;20427;-61
2023/12/19 10:59:42;;;;;;;13.70;13.02;;;;;;;;;;5065162;28;20077;-61
2023/12/19 11:02:16;;;;;;;14.00;13.30;;;;;;;;;;5065750;28;20036;-60
2023/12/19 11:04:44;;;;;;;;;;;;;;;;;;5068329;28;20016;-61
2023/12/19 11:07:11;;;;;;;15.23;14.43;;;;;;;;;;5070021;28;20360;-61
2023/12/19 11:09:38;;;;;;;13.95;13.25;;;;;;;;;;5070185;28;20487;-61
2023/12/19 11:12:04;;;;;;;13.95;13.25;;;;;;;;;;5068965;28;20009;-63
2023/12/19 11:14:29;;;;;;;13.73;13.05;;;;;;;;;;5070443;28;20044;-62
2023/12/19 11:16:57;;;;;;;13.10;12.50;;;;;;;;;;5070163;28;20400;-60
2023/12/19 11:19:27;;;;;;;13.35;12.75;;;;;;;;;;5069920;28;20167;-62
2023/12/19 11:22:07;;;;;;;13.35;12.75;;;;;;;;;;5074871;28;20028;-62
2023/12/19 11:24:55;;;;;;;13.88;13.18;;;;;;;;;;5073585;28;20029;-61
2023/12/19 11:27:23;;;;;;;13.35;12.75;;;;;;;;;;5066383;28;20055;-61
2023/12/19 11:29:56;;;;;;;13.00;12.40;;;;;;;;;;5077232;28;20528;-61
2023/12/19 11:32:27;;;;;;;13.55;12.93;;;;;;;;;;5074350;28;20475;-62
2023/12/19 11:35:08;;;;;;;13.80;13.10;;;;;;;;;;5071189;28;20020;-61
2023/12/19 11:37:34;;;;;;;13.52;12.88;;;;;;;;;;5074471;28;20020;-63
2023/12/19 11:40:00;;;;;;;12.73;12.13;;;;;;;;;;5069267;28;20036;-62
2023/12/19 11:42:37;;;;;;;12.98;12.38;;;;;;;;;;5076987;28;20020;-62
2023/12/19 11:45:23;;;;;;;12.98;12.38;;;;;;;;;;5078318;28;20379;-61
2023/12/19 11:47:48;;;;;;;13.10;12.50;;;;;;;;;;5066442;28;20037;-61
2023/12/19 11:50:32;;;;;;;14.25;13.55;;;;;;;;;;5074047;28;20413;-62
2023/12/19 11:52:57;;;;;;;13.00;12.40;;;;;;;;;;5074589;28;20024;-61
2023/12/19 11:55:25;;;;;;;13.95;13.25;;;;;;;;;;5073561;28;20291;-61
2023/12/19 11:57:50;;;;;;;12.98;12.38;;;;;;;;;;5073596;28;20414;-62
2023/12/19 12:00:16;;;;;;;13.00;12.40;;;;;;;;;;5073643;28;20103;-61
2023/12/19 12:02:41;;;;;;;13.88;13.18;;;;;;;;;;5073826;28;20024;-62
2023/12/19 12:05:13;;;;;;;13.07;12.48;;;;;;;;;;5073760;28;20444;-62
2023/12/19 12:07:40;;;;;;;12.85;12.25;;;;;;;;;;5071540;28;20130;-61
2023/12/19 12:10:06;;;;;;;13.23;12.63;;;;;;;;;;5072850;28;20384;-62
2023/12/19 12:12:35;;;;;;;13.88;13.18;;;;;;;;;;5073731;28;20025;-61
2023/12/19 12:15:21;;;;;;;12.73;12.13;;;;;;;;;;5073770;28;20031;-62
2023/12/19 12:17:50;;;;;;;13.15;12.55;;;;;;;;;;5071471;28;20066;-62
2023/12/19 12:20:22;;;;;;;12.90;12.30;;;;;;;;;;5073633;28;20020;-64
2023/12/19 12:22:47;;;;;;;13.07;12.48;;;;;;;;;;5072254;28;20085;-62
2023/12/19 12:25:13;;;;;;;14.10;13.40;;;;;;;;;;5076997;28;20017;-62
2023/12/19 12:27:39;;;;;;;13.32;12.73;;;;;;;;;;5073160;28;20035;-61
2023/12/19 12:30:08;;;;;;;13.38;12.77;;;;;;;;;;5073192;28;20031;-61
2023/12/19 12:32:33;;;;;;;13.48;12.88;;;;;;;;;;5073728;28;20021;-61
2023/12/19 12:34:58;;;;;;;13.07;12.48;;;;;;;;;;5073302;28;20535;-61
2023/12/19 12:37:24;;;;;;;13.10;12.50;;;;;;;;;;5072761;28;20029;-60
2023/12/19 12:39:49;;;;;;;13.57;12.95;;;;;;;;;;5072514;28;20024;-60
2023/12/19 12:42:20;;;;;;;13.82;13.13;;;;;;;;;;5072911;28;20074;-61
2023/12/19 12:44:45;;;;;;;14.13;13.43;;;;;;;;;;5072707;28;20028;-61
2023/12/19 12:47:10;;;;;;;12.90;12.30;;;;;;;;;;5071209;28;20024;-62
2023/12/19 12:49:37;;;;;;;13.60;13.00;;;;;;;;;;5072684;28;20021;-61
2023/12/19 12:52:04;;;;;;;14.18;13.48;;;;;;;;;;5077932;28;20026;-61
2023/12/19 12:54:29;;;;;;;14.25;13.55;;;;;;;;;;5071613;28;20406;-62
2023/12/19 12:56:54;;;;;;;13.15;12.55;;;;;;;;;;5072977;28;20095;-62
2023/12/19 12:59:22;;;;;;;12.88;12.27;;;;;;;;;;5072455;28;20399;-61
2023/12/19 13:01:49;;;;;;;12.90;12.30;;;;;;;;;;5072776;28;20036;-60
2023/12/19 13:04:14;;;;;;;13.27;12.68;;;;;;;;;;5072595;28;20154;-61
2023/12/19 13:06:44;;;;;;;12.75;12.15;;;;;;;;;;5073004;28;20100;-61
2023/12/19 13:09:13;;;;;;;13.75;13.05;;;;;;;;;;5072385;28;20044;-62
2023/12/19 13:11:42;;;;;;;13.80;13.10;;;;;;;;;;5072384;28;20032;-58
2023/12/19 13:14:08;;;;;;;13.80;13.10;;;;;;;;;;5072377;28;20025;-62
2023/12/19 13:16:33;;;;;;;13.40;12.80;;;;;;;;;;5071840;28;20113;-62
2023/12/19 13:18:59;;;;;;;13.20;12.60;;;;;;;;;;5072294;28;20460;-62
2023/12/19 13:21:24;;;;;;;13.63;13.00;;;;;;;;;;5074415;28;20043;-61
2023/12/19 13:23:52;;;;;;;13.07;12.48;;;;;;;;;;5071255;28;20013;-61
2023/12/19 13:26:17;;;;;;;14.40;13.70;;;;;;;;;;5071960;28;20096;-63
2023/12/19 13:28:43;;;;;;;13.85;13.15;;;;;;;;;;5072015;28;20420;-63
2023/12/19 13:31:09;;;;;;;14.02;13.32;;;;;;;;;;5064369;28;20037;-61
2023/12/19 13:33:35;;;;;;;14.88;14.18;;;;;;;;;;5071711;28;20024;-60
2023/12/19 13:36:00;;;;;;;14.25;13.55;;;;;;;;;;5072174;28;20042;-60
2023/12/19 13:38:26;;;;;;;13.57;12.93;;;;;;;;;;5070393;28;20016;-62
2023/12/19 13:40:51;;;;;;;13.43;12.82;;;;;;;;;;5070096;28;20392;-62
2023/12/19 13:43:16;;;;;;;12.98;12.38;;;;;;;;;;5071982;28;20150;-61
2023/12/19 13:45:42;;;;;;;13.52;12.90;;;;;;;;;;5071573;28;20021;-62
2023/12/19 13:48:08;;;;;;;13.10;12.50;;;;;;;;;;5071718;28;20056;-61
2023/12/19 13:50:34;;;;;;;13.02;12.43;;;;;;;;;;5071983;28;20044;-62
2023/12/19 13:53:00;;;;;;;13.27;12.68;;;;;;;;;;5070202;28;20030;-63
2023/12/19 13:55:25;;;;;;;13.60;12.93;;;;;;;;;;5068313;28;20096;-63
2023/12/19 13:57:50;;;;;;;12.93;12.32;;;;;;;;;;5071657;28;20380;-61
2023/12/19 14:00:17;;;;;;;13.32;12.73;;;;;;;;;;5071509;28;20056;-62
2023/12/19 14:02:43;;;;;;;13.38;12.77;;;;;;;;;;5071378;28;20094;-62
2023/12/19 14:05:09;;;;;;;13.93;13.23;;;;;;;;;;5071321;28;20369;-61
2023/12/19 14:07:34;;;;;;;13.02;12.43;;;;;;;;;;5071544;28;20043;-61
2023/12/19 14:10:01;;;;;;;14.15;13.45;;;;;;;;;;5071312;28;20100;-60
2023/12/19 14:12:27;;;;;;;14.40;13.70;;;;;;;;;;5071237;28;20024;-63
2023/12/19 14:14:52;;;;;;;12.80;12.20;;;;;;;;;;5071417;28;20015;-61